sensor_id;sensor_type;location;lat;lon;timestamp;P1;durP1;ratioP1;P2;durP2;ratioP2
40997;SDS011;26740;45.944;12.480;2023-04-06T00:01:37;13.00;;;6.60;;
40997;SDS011;26740;45.944;12.480;2023-04-06T00:04:03;14.20;;;6.85;;
40997;SDS011;26740;45.944;12.480;2023-04-06T00:06:29;15.85;;;7.10;;
40997;SDS011;26740;45.944;12.480;2023-04-06T00:08:55;11.48;;;6.82;;
40997;SDS011;26740;45.944;12.480;2023-04-06T00:11:21;12.23;;;8.05;;
40997;SDS011;26740;45.944;12.480;2023-04-06T00:13:46;14.70;;;6.93;;
40997;SDS011;26740;45.944;12.480;2023-04-06T00:16:12;10.98;;;6.13;;
40997;SDS011;26740;45.944;12.480;2023-04-06T00:18:38;11.32;;;6.85;;
40997;SDS011;26740;45.944;12.480;2023-04-06T00:21:04;10.80;;;5.43;;
40997;SDS011;26740;45.944;12.480;2023-04-06T00:23:30;13.48;;;7.03;;
40997;SDS011;26740;45.944;12.480;2023-04-06T00:25:55;18.40;;;6.78;;
40997;SDS011;26740;45.944;12.480;2023-04-06T00:28:21;14.90;;;5.78;;
40997;SDS011;26740;45.944;12.480;2023-04-06T00:30:51;12.18;;;6.28;;
40997;SDS011;26740;45.944;12.480;2023-04-06T00:33:20;9.63;;;5.67;;
40997;SDS011;26740;45.944;12.480;2023-04-06T00:35:46;12.18;;;6.57;;
40997;SDS011;26740;45.944;12.480;2023-04-06T00:38:12;9.10;;;5.20;;
40997;SDS011;26740;45.944;12.480;2023-04-06T00:40:37;13.23;;;5.18;;
40997;SDS011;26740;45.944;12.480;2023-04-06T00:43:05;10.93;;;5.55;;
40997;SDS011;26740;45.944;12.480;2023-04-06T00:45:31;8.75;;;5.30;;
40997;SDS011;26740;45.944;12.480;2023-04-06T00:47:57;10.00;;;5.38;;
40997;SDS011;26740;45.944;12.480;2023-04-06T00:50:23;9.60;;;5.63;;
40997;SDS011;26740;45.944;12.480;2023-04-06T00:52:48;14.93;;;5.38;;
40997;SDS011;26740;45.944;12.480;2023-04-06T00:55:14;12.30;;;5.25;;
40997;SDS011;26740;45.944;12.480;2023-04-06T00:57:40;10.15;;;5.60;;
40997;SDS011;26740;45.944;12.480;2023-04-06T01:00:06;11.40;;;5.60;;
40997;SDS011;26740;45.944;12.480;2023-04-06T01:02:32;9.98;;;4.25;;
40997;SDS011;26740;45.944;12.480;2023-04-06T01:04:57;11.65;;;5.28;;
40997;SDS011;26740;45.944;12.480;2023-04-06T01:07:23;11.20;;;5.35;;
40997;SDS011;26740;45.944;12.480;2023-04-06T01:09:50;11.70;;;4.97;;
40997;SDS011;26740;45.944;12.480;2023-04-06T01:12:15;8.50;;;4.90;;
40997;SDS011;26740;45.944;12.480;2023-04-06T01:14:41;16.40;;;5.32;;
40997;SDS011;26740;45.944;12.480;2023-04-06T01:17:06;10.50;;;4.97;;
40997;SDS011;26740;45.944;12.480;2023-04-06T01:19:32;7.15;;;4.82;;
40997;SDS011;26740;45.944;12.480;2023-04-06T01:21:58;8.93;;;4.45;;
40997;SDS011;26740;45.944;12.480;2023-04-06T01:24:23;8.75;;;5.07;;
40997;SDS011;26740;45.944;12.480;2023-04-06T01:26:49;10.82;;;5.20;;
40997;SDS011;26740;45.944;12.480;2023-04-06T01:29:15;10.35;;;4.70;;
40997;SDS011;26740;45.944;12.480;2023-04-06T01:31:40;7.55;;;4.72;;
40997;SDS011;26740;45.944;12.480;2023-04-06T01:34:06;5.70;;;3.65;;
40997;SDS011;26740;45.944;12.480;2023-04-06T01:36:32;7.20;;;3.83;;
40997;SDS011;26740;45.944;12.480;2023-04-06T01:38:57;7.75;;;4.07;;
40997;SDS011;26740;45.944;12.480;2023-04-06T01:41:23;13.60;;;5.03;;
40997;SDS011;26740;45.944;12.480;2023-04-06T01:43:49;7.90;;;4.88;;
40997;SDS011;26740;45.944;12.480;2023-04-06T01:46:15;14.38;;;4.18;;
40997;SDS011;26740;45.944;12.480;2023-04-06T01:48:41;9.70;;;4.22;;
40997;SDS011;26740;45.944;12.480;2023-04-06T01:51:07;11.63;;;4.32;;
40997;SDS011;26740;45.944;12.480;2023-04-06T01:53:32;5.90;;;3.58;;
40997;SDS011;26740;45.944;12.480;2023-04-06T01:55:58;6.50;;;3.95;;
40997;SDS011;26740;45.944;12.480;2023-04-06T01:58:23;6.93;;;4.47;;
40997;SDS011;26740;45.944;12.480;2023-04-06T02:00:49;6.75;;;3.92;;
40997;SDS011;26740;45.944;12.480;2023-04-06T02:03:15;10.20;;;4.05;;
40997;SDS011;26740;45.944;12.480;2023-04-06T02:05:40;10.25;;;3.58;;
40997;SDS011;26740;45.944;12.480;2023-04-06T02:08:06;6.82;;;4.47;;
40997;SDS011;26740;45.944;12.480;2023-04-06T02:10:33;7.38;;;3.50;;
40997;SDS011;26740;45.944;12.480;2023-04-06T02:12:59;6.90;;;3.38;;
40997;SDS011;26740;45.944;12.480;2023-04-06T02:15:25;8.35;;;3.90;;
40997;SDS011;26740;45.944;12.480;2023-04-06T02:17:51;6.82;;;3.03;;
40997;SDS011;26740;45.944;12.480;2023-04-06T02:20:17;8.15;;;3.70;;
40997;SDS011;26740;45.944;12.480;2023-04-06T02:22:43;5.40;;;2.75;;
40997;SDS011;26740;45.944;12.480;2023-04-06T02:25:09;9.00;;;2.83;;
40997;SDS011;26740;45.944;12.480;2023-04-06T02:27:35;6.75;;;3.13;;
40997;SDS011;26740;45.944;12.480;2023-04-06T02:30:01;10.23;;;2.85;;
40997;SDS011;26740;45.944;12.480;2023-04-06T02:32:27;4.47;;;2.63;;
40997;SDS011;26740;45.944;12.480;2023-04-06T02:34:53;6.55;;;2.60;;
40997;SDS011;26740;45.944;12.480;2023-04-06T02:37:19;5.43;;;2.42;;
40997;SDS011;26740;45.944;12.480;2023-04-06T02:39:44;7.65;;;2.95;;
40997;SDS011;26740;45.944;12.480;2023-04-06T02:42:10;5.13;;;2.65;;
40997;SDS011;26740;45.944;12.480;2023-04-06T02:44:36;7.10;;;2.55;;
40997;SDS011;26740;45.944;12.480;2023-04-06T02:47:01;4.22;;;2.13;;
40997;SDS011;26740;45.944;12.480;2023-04-06T02:49:27;5.03;;;2.95;;
40997;SDS011;26740;45.944;12.480;2023-04-06T02:51:53;23.40;;;2.72;;
40997;SDS011;26740;45.944;12.480;2023-04-06T02:54:18;6.65;;;3.08;;
40997;SDS011;26740;45.944;12.480;2023-04-06T02:56:44;5.20;;;2.55;;
40997;SDS011;26740;45.944;12.480;2023-04-06T02:59:10;4.75;;;2.63;;
40997;SDS011;26740;45.944;12.480;2023-04-06T03:01:35;2.58;;;2.10;;
40997;SDS011;26740;45.944;12.480;2023-04-06T03:04:01;4.65;;;2.25;;
40997;SDS011;26740;45.944;12.480;2023-04-06T03:06:27;7.70;;;2.88;;
40997;SDS011;26740;45.944;12.480;2023-04-06T03:08:53;3.90;;;2.42;;
40997;SDS011;26740;45.944;12.480;2023-04-06T03:11:18;6.68;;;3.00;;
40997;SDS011;26740;45.944;12.480;2023-04-06T03:13:44;4.55;;;2.47;;
40997;SDS011;26740;45.944;12.480;2023-04-06T03:16:10;7.50;;;3.10;;
40997;SDS011;26740;45.944;12.480;2023-04-06T03:18:35;12.13;;;3.03;;
40997;SDS011;26740;45.944;12.480;2023-04-06T03:21:01;6.00;;;2.83;;
40997;SDS011;26740;45.944;12.480;2023-04-06T03:23:27;8.13;;;2.65;;
40997;SDS011;26740;45.944;12.480;2023-04-06T03:25:52;4.97;;;3.47;;
40997;SDS011;26740;45.944;12.480;2023-04-06T03:28:18;8.10;;;2.40;;
40997;SDS011;26740;45.944;12.480;2023-04-06T03:30:44;4.97;;;2.38;;
40997;SDS011;26740;45.944;12.480;2023-04-06T03:33:10;5.00;;;2.83;;
40997;SDS011;26740;45.944;12.480;2023-04-06T03:35:36;10.05;;;3.20;;
40997;SDS011;26740;45.944;12.480;2023-04-06T03:38:02;12.88;;;3.20;;
40997;SDS011;26740;45.944;12.480;2023-04-06T03:40:28;4.00;;;2.08;;
40997;SDS011;26740;45.944;12.480;2023-04-06T03:42:55;5.97;;;2.58;;
40997;SDS011;26740;45.944;12.480;2023-04-06T03:45:20;4.38;;;2.22;;
40997;SDS011;26740;45.944;12.480;2023-04-06T03:47:46;6.93;;;2.05;;
40997;SDS011;26740;45.944;12.480;2023-04-06T03:50:11;7.10;;;2.22;;
40997;SDS011;26740;45.944;12.480;2023-04-06T03:52:37;3.70;;;2.28;;
40997;SDS011;26740;45.944;12.480;2023-04-06T03:55:03;5.38;;;2.63;;
40997;SDS011;26740;45.944;12.480;2023-04-06T03:57:29;6.32;;;2.53;;
40997;SDS011;26740;45.944;12.480;2023-04-06T03:59:54;6.00;;;2.72;;
40997;SDS011;26740;45.944;12.480;2023-04-06T04:02:20;7.93;;;2.95;;
40997;SDS011;26740;45.944;12.480;2023-04-06T04:04:45;5.65;;;2.63;;
40997;SDS011;26740;45.944;12.480;2023-04-06T04:07:11;6.55;;;2.65;;
40997;SDS011;26740;45.944;12.480;2023-04-06T04:09:37;4.55;;;2.10;;
40997;SDS011;26740;45.944;12.480;2023-04-06T04:12:02;3.42;;;1.63;;
40997;SDS011;26740;45.944;12.480;2023-04-06T04:14:28;6.75;;;2.40;;
40997;SDS011;26740;45.944;12.480;2023-04-06T04:16:54;4.97;;;2.20;;
40997;SDS011;26740;45.944;12.480;2023-04-06T04:19:19;5.07;;;2.50;;
40997;SDS011;26740;45.944;12.480;2023-04-06T04:21:45;7.95;;;2.33;;
40997;SDS011;26740;45.944;12.480;2023-04-06T04:24:12;4.97;;;2.10;;
40997;SDS011;26740;45.944;12.480;2023-04-06T04:26:38;7.95;;;3.05;;
40997;SDS011;26740;45.944;12.480;2023-04-06T04:29:05;8.27;;;2.45;;
40997;SDS011;26740;45.944;12.480;2023-04-06T04:31:31;6.53;;;2.40;;
40997;SDS011;26740;45.944;12.480;2023-04-06T04:33:57;8.35;;;2.47;;
40997;SDS011;26740;45.944;12.480;2023-04-06T04:36:23;7.82;;;2.72;;
40997;SDS011;26740;45.944;12.480;2023-04-06T04:38:51;5.53;;;2.67;;
40997;SDS011;26740;45.944;12.480;2023-04-06T04:41:19;8.82;;;2.75;;
40997;SDS011;26740;45.944;12.480;2023-04-06T04:43:45;7.90;;;2.13;;
40997;SDS011;26740;45.944;12.480;2023-04-06T04:46:11;5.35;;;2.40;;
40997;SDS011;26740;45.944;12.480;2023-04-06T04:48:36;6.88;;;3.03;;
40997;SDS011;26740;45.944;12.480;2023-04-06T04:51:02;7.80;;;3.25;;
40997;SDS011;26740;45.944;12.480;2023-04-06T04:53:29;3.92;;;2.80;;
40997;SDS011;26740;45.944;12.480;2023-04-06T04:55:54;7.75;;;2.72;;
40997;SDS011;26740;45.944;12.480;2023-04-06T04:58:20;10.93;;;2.92;;
40997;SDS011;26740;45.944;12.480;2023-04-06T05:00:46;9.73;;;3.50;;
40997;SDS011;26740;45.944;12.480;2023-04-06T05:03:18;8.73;;;3.22;;
40997;SDS011;26740;45.944;12.480;2023-04-06T05:05:47;6.72;;;3.65;;
40997;SDS011;26740;45.944;12.480;2023-04-06T05:08:12;10.50;;;4.03;;
40997;SDS011;26740;45.944;12.480;2023-04-06T05:10:38;12.60;;;4.85;;
40997;SDS011;26740;45.944;12.480;2023-04-06T05:13:04;12.98;;;5.53;;
40997;SDS011;26740;45.944;12.480;2023-04-06T05:15:30;12.65;;;5.13;;
40997;SDS011;26740;45.944;12.480;2023-04-06T05:17:55;11.55;;;4.90;;
40997;SDS011;26740;45.944;12.480;2023-04-06T05:20:21;13.30;;;4.70;;
40997;SDS011;26740;45.944;12.480;2023-04-06T05:22:46;8.80;;;3.85;;
40997;SDS011;26740;45.944;12.480;2023-04-06T05:25:12;5.88;;;2.85;;
40997;SDS011;26740;45.944;12.480;2023-04-06T05:27:38;12.55;;;2.60;;
40997;SDS011;26740;45.944;12.480;2023-04-06T05:30:05;8.18;;;3.63;;
40997;SDS011;26740;45.944;12.480;2023-04-06T05:32:32;13.55;;;3.40;;
40997;SDS011;26740;45.944;12.480;2023-04-06T05:34:58;6.43;;;2.90;;
40997;SDS011;26740;45.944;12.480;2023-04-06T05:37:23;9.57;;;3.25;;
40997;SDS011;26740;45.944;12.480;2023-04-06T05:39:49;10.63;;;4.03;;
40997;SDS011;26740;45.944;12.480;2023-04-06T05:42:15;12.18;;;3.58;;
40997;SDS011;26740;45.944;12.480;2023-04-06T05:44:40;8.40;;;4.18;;
40997;SDS011;26740;45.944;12.480;2023-04-06T05:47:06;17.15;;;3.90;;
40997;SDS011;26740;45.944;12.480;2023-04-06T05:49:32;6.70;;;2.90;;
40997;SDS011;26740;45.944;12.480;2023-04-06T05:51:57;15.60;;;5.65;;
40997;SDS011;26740;45.944;12.480;2023-04-06T05:54:23;10.50;;;5.13;;
40997;SDS011;26740;45.944;12.480;2023-04-06T05:56:49;12.35;;;5.05;;
40997;SDS011;26740;45.944;12.480;2023-04-06T05:59:14;10.40;;;5.07;;
40997;SDS011;26740;45.944;12.480;2023-04-06T06:01:40;8.52;;;4.53;;
40997;SDS011;26740;45.944;12.480;2023-04-06T06:04:06;8.63;;;4.60;;
40997;SDS011;26740;45.944;12.480;2023-04-06T06:06:31;6.40;;;3.53;;
40997;SDS011;26740;45.944;12.480;2023-04-06T06:08:57;9.77;;;4.22;;
40997;SDS011;26740;45.944;12.480;2023-04-06T06:11:25;8.75;;;3.90;;
40997;SDS011;26740;45.944;12.480;2023-04-06T06:13:51;17.40;;;7.70;;
40997;SDS011;26740;45.944;12.480;2023-04-06T06:16:18;21.83;;;11.00;;
40997;SDS011;26740;45.944;12.480;2023-04-06T06:18:44;44.88;;;23.42;;
40997;SDS011;26740;45.944;12.480;2023-04-06T06:21:10;49.63;;;26.35;;
40997;SDS011;26740;45.944;12.480;2023-04-06T06:23:39;45.83;;;23.08;;
40997;SDS011;26740;45.944;12.480;2023-04-06T06:26:07;27.02;;;17.05;;
40997;SDS011;26740;45.944;12.480;2023-04-06T06:28:33;19.85;;;10.52;;
40997;SDS011;26740;45.944;12.480;2023-04-06T06:30:58;17.15;;;10.40;;
40997;SDS011;26740;45.944;12.480;2023-04-06T06:33:24;21.35;;;12.70;;
40997;SDS011;26740;45.944;12.480;2023-04-06T06:35:51;15.73;;;8.88;;
40997;SDS011;26740;45.944;12.480;2023-04-06T06:38:17;10.35;;;5.70;;
40997;SDS011;26740;45.944;12.480;2023-04-06T06:40:42;15.15;;;6.95;;
40997;SDS011;26740;45.944;12.480;2023-04-06T06:43:08;12.20;;;5.93;;
40997;SDS011;26740;45.944;12.480;2023-04-06T06:45:34;10.23;;;4.32;;
40997;SDS011;26740;45.944;12.480;2023-04-06T06:48:00;8.40;;;3.53;;
40997;SDS011;26740;45.944;12.480;2023-04-06T06:50:25;4.63;;;3.10;;
40997;SDS011;26740;45.944;12.480;2023-04-06T06:52:51;6.75;;;4.05;;
40997;SDS011;26740;45.944;12.480;2023-04-06T06:55:16;11.60;;;3.55;;
40997;SDS011;26740;45.944;12.480;2023-04-06T06:57:44;8.15;;;3.53;;
40997;SDS011;26740;45.944;12.480;2023-04-06T07:00:11;8.55;;;3.22;;
40997;SDS011;26740;45.944;12.480;2023-04-06T07:02:38;6.13;;;3.60;;
40997;SDS011;26740;45.944;12.480;2023-04-06T07:05:05;7.32;;;3.38;;
40997;SDS011;26740;45.944;12.480;2023-04-06T07:07:33;6.82;;;3.08;;
40997;SDS011;26740;45.944;12.480;2023-04-06T07:10:00;5.03;;;2.45;;
40997;SDS011;26740;45.944;12.480;2023-04-06T07:12:26;9.35;;;2.88;;
40997;SDS011;26740;45.944;12.480;2023-04-06T07:14:51;6.18;;;2.88;;
40997;SDS011;26740;45.944;12.480;2023-04-06T07:17:17;8.45;;;3.10;;
40997;SDS011;26740;45.944;12.480;2023-04-06T07:19:43;5.45;;;3.33;;
40997;SDS011;26740;45.944;12.480;2023-04-06T07:22:09;6.05;;;2.80;;
40997;SDS011;26740;45.944;12.480;2023-04-06T07:24:34;8.35;;;3.85;;
40997;SDS011;26740;45.944;12.480;2023-04-06T07:27:00;8.45;;;3.25;;
40997;SDS011;26740;45.944;12.480;2023-04-06T07:29:26;7.97;;;3.05;;
40997;SDS011;26740;45.944;12.480;2023-04-06T07:31:53;4.68;;;2.60;;
40997;SDS011;26740;45.944;12.480;2023-04-06T07:34:19;4.40;;;2.53;;
40997;SDS011;26740;45.944;12.480;2023-04-06T07:36:45;6.57;;;3.17;;
40997;SDS011;26740;45.944;12.480;2023-04-06T07:39:11;7.35;;;3.00;;
40997;SDS011;26740;45.944;12.480;2023-04-06T07:41:36;4.65;;;2.42;;
40997;SDS011;26740;45.944;12.480;2023-04-06T07:44:02;4.70;;;3.33;;
40997;SDS011;26740;45.944;12.480;2023-04-06T07:46:28;6.95;;;2.90;;
40997;SDS011;26740;45.944;12.480;2023-04-06T07:48:55;5.38;;;2.85;;
40997;SDS011;26740;45.944;12.480;2023-04-06T07:51:22;8.98;;;3.45;;
40997;SDS011;26740;45.944;12.480;2023-04-06T07:53:47;7.93;;;3.55;;
40997;SDS011;26740;45.944;12.480;2023-04-06T07:56:13;5.68;;;3.42;;
40997;SDS011;26740;45.944;12.480;2023-04-06T07:58:40;7.28;;;3.28;;
40997;SDS011;26740;45.944;12.480;2023-04-06T08:01:06;9.70;;;3.90;;
40997;SDS011;26740;45.944;12.480;2023-04-06T08:03:33;9.32;;;3.72;;
40997;SDS011;26740;45.944;12.480;2023-04-06T08:05:59;9.35;;;4.18;;
40997;SDS011;26740;45.944;12.480;2023-04-06T08:08:25;7.05;;;3.30;;
40997;SDS011;26740;45.944;12.480;2023-04-06T08:10:51;4.32;;;3.28;;
40997;SDS011;26740;45.944;12.480;2023-04-06T08:13:16;6.28;;;3.50;;
40997;SDS011;26740;45.944;12.480;2023-04-06T08:15:42;7.32;;;3.80;;
40997;SDS011;26740;45.944;12.480;2023-04-06T08:18:08;7.30;;;3.13;;
40997;SDS011;26740;45.944;12.480;2023-04-06T08:20:34;6.60;;;3.67;;
40997;SDS011;26740;45.944;12.480;2023-04-06T08:23:00;7.55;;;3.65;;
40997;SDS011;26740;45.944;12.480;2023-04-06T08:25:25;5.68;;;3.63;;
40997;SDS011;26740;45.944;12.480;2023-04-06T08:27:51;5.10;;;2.97;;
40997;SDS011;26740;45.944;12.480;2023-04-06T08:30:17;8.02;;;3.97;;
40997;SDS011;26740;45.944;12.480;2023-04-06T08:32:44;6.40;;;3.65;;
40997;SDS011;26740;45.944;12.480;2023-04-06T08:35:10;7.10;;;4.15;;
40997;SDS011;26740;45.944;12.480;2023-04-06T08:37:35;7.30;;;3.85;;
40997;SDS011;26740;45.944;12.480;2023-04-06T08:40:01;5.15;;;3.55;;
40997;SDS011;26740;45.944;12.480;2023-04-06T08:42:28;5.40;;;3.80;;
40997;SDS011;26740;45.944;12.480;2023-04-06T08:45:04;7.60;;;4.28;;
40997;SDS011;26740;45.944;12.480;2023-04-06T08:47:31;9.02;;;3.63;;
40997;SDS011;26740;45.944;12.480;2023-04-06T08:49:56;6.82;;;3.92;;
40997;SDS011;26740;45.944;12.480;2023-04-06T08:52:25;5.72;;;3.72;;
40997;SDS011;26740;45.944;12.480;2023-04-06T08:54:52;6.43;;;3.80;;
40997;SDS011;26740;45.944;12.480;2023-04-06T08:57:18;9.32;;;4.15;;
40997;SDS011;26740;45.944;12.480;2023-04-06T08:59:45;6.30;;;4.18;;
40997;SDS011;26740;45.944;12.480;2023-04-06T09:02:12;11.10;;;4.18;;
40997;SDS011;26740;45.944;12.480;2023-04-06T09:04:42;9.40;;;4.30;;
40997;SDS011;26740;45.944;12.480;2023-04-06T09:07:10;14.80;;;4.22;;
40997;SDS011;26740;45.944;12.480;2023-04-06T09:09:36;6.97;;;4.75;;
40997;SDS011;26740;45.944;12.480;2023-04-06T09:12:02;7.60;;;4.13;;
40997;SDS011;26740;45.944;12.480;2023-04-06T09:14:37;9.70;;;5.18;;
40997;SDS011;26740;45.944;12.480;2023-04-06T09:17:03;7.63;;;4.10;;
40997;SDS011;26740;45.944;12.480;2023-04-06T09:19:29;5.97;;;3.67;;
40997;SDS011;26740;45.944;12.480;2023-04-06T09:22:02;5.65;;;4.40;;
40997;SDS011;26740;45.944;12.480;2023-04-06T09:27:12;7.65;;;4.00;;
40997;SDS011;26740;45.944;12.480;2023-04-06T09:29:38;10.50;;;6.22;;
40997;SDS011;26740;45.944;12.480;2023-04-06T09:32:05;8.57;;;4.05;;
40997;SDS011;26740;45.944;12.480;2023-04-06T09:34:32;10.52;;;3.85;;
40997;SDS011;26740;45.944;12.480;2023-04-06T09:36:59;6.60;;;4.55;;
40997;SDS011;26740;45.944;12.480;2023-04-06T09:39:25;8.80;;;4.70;;
40997;SDS011;26740;45.944;12.480;2023-04-06T09:41:51;6.55;;;4.10;;
40997;SDS011;26740;45.944;12.480;2023-04-06T09:44:18;11.18;;;4.35;;
40997;SDS011;26740;45.944;12.480;2023-04-06T09:46:45;7.78;;;4.60;;
40997;SDS011;26740;45.944;12.480;2023-04-06T09:49:12;8.35;;;4.93;;
40997;SDS011;26740;45.944;12.480;2023-04-06T09:51:44;12.70;;;4.40;;
40997;SDS011;26740;45.944;12.480;2023-04-06T09:54:15;11.70;;;4.13;;
40997;SDS011;26740;45.944;12.480;2023-04-06T09:56:46;6.07;;;4.05;;
40997;SDS011;26740;45.944;12.480;2023-04-06T10:02:08;13.90;;;5.70;;
40997;SDS011;26740;45.944;12.480;2023-04-06T10:07:37;7.95;;;4.97;;
40997;SDS011;26740;45.944;12.480;2023-04-06T10:10:05;9.50;;;5.28;;
40997;SDS011;26740;45.944;12.480;2023-04-06T10:12:32;8.77;;;5.07;;
40997;SDS011;26740;45.944;12.480;2023-04-06T10:14:57;9.73;;;5.53;;
40997;SDS011;26740;45.944;12.480;2023-04-06T10:17:23;10.25;;;5.15;;
40997;SDS011;26740;45.944;12.480;2023-04-06T10:20:05;6.60;;;4.47;;
40997;SDS011;26740;45.944;12.480;2023-04-06T10:25:08;9.35;;;4.75;;
40997;SDS011;26740;45.944;12.480;2023-04-06T10:27:34;8.98;;;5.40;;
40997;SDS011;26740;45.944;12.480;2023-04-06T10:30:01;9.55;;;5.65;;
40997;SDS011;26740;45.944;12.480;2023-04-06T10:32:34;7.72;;;4.95;;
40997;SDS011;26740;45.944;12.480;2023-04-06T10:37:52;9.60;;;5.32;;
40997;SDS011;26740;45.944;12.480;2023-04-06T10:40:28;9.40;;;5.38;;
40997;SDS011;26740;45.944;12.480;2023-04-06T10:42:54;12.00;;;5.88;;
40997;SDS011;26740;45.944;12.480;2023-04-06T10:45:24;10.60;;;5.60;;
40997;SDS011;26740;45.944;12.480;2023-04-06T10:47:54;12.05;;;6.00;;
40997;SDS011;26740;45.944;12.480;2023-04-06T10:50:21;13.23;;;5.70;;
40997;SDS011;26740;45.944;12.480;2023-04-06T10:52:47;10.02;;;4.97;;
40997;SDS011;26740;45.944;12.480;2023-04-06T10:55:25;8.38;;;5.07;;
40997;SDS011;26740;45.944;12.480;2023-04-06T10:57:52;9.55;;;5.80;;
40997;SDS011;26740;45.944;12.480;2023-04-06T11:00:17;9.35;;;5.72;;
40997;SDS011;26740;45.944;12.480;2023-04-06T11:02:44;9.07;;;5.40;;
40997;SDS011;26740;45.944;12.480;2023-04-06T11:05:11;9.18;;;5.20;;
40997;SDS011;26740;45.944;12.480;2023-04-06T11:07:39;7.32;;;5.20;;
40997;SDS011;26740;45.944;12.480;2023-04-06T11:10:06;13.75;;;6.00;;
40997;SDS011;26740;45.944;12.480;2023-04-06T11:12:32;7.15;;;5.50;;
40997;SDS011;26740;45.944;12.480;2023-04-06T11:15:01;7.90;;;5.47;;
40997;SDS011;26740;45.944;12.480;2023-04-06T11:17:31;10.68;;;6.53;;
40997;SDS011;26740;45.944;12.480;2023-04-06T11:19:59;12.93;;;5.65;;
40997;SDS011;26740;45.944;12.480;2023-04-06T11:22:25;9.10;;;5.88;;
40997;SDS011;26740;45.944;12.480;2023-04-06T11:24:51;9.32;;;6.05;;
40997;SDS011;26740;45.944;12.480;2023-04-06T11:27:18;8.85;;;6.35;;
40997;SDS011;26740;45.944;12.480;2023-04-06T11:29:45;10.02;;;5.82;;
40997;SDS011;26740;45.944;12.480;2023-04-06T11:32:19;10.63;;;5.93;;
40997;SDS011;26740;45.944;12.480;2023-04-06T11:34:46;11.32;;;6.30;;
40997;SDS011;26740;45.944;12.480;2023-04-06T11:37:13;9.88;;;5.38;;
40997;SDS011;26740;45.944;12.480;2023-04-06T11:39:39;8.32;;;5.40;;
40997;SDS011;26740;45.944;12.480;2023-04-06T11:42:07;10.05;;;5.45;;
40997;SDS011;26740;45.944;12.480;2023-04-06T11:44:36;9.35;;;6.75;;
40997;SDS011;26740;45.944;12.480;2023-04-06T11:47:08;10.88;;;6.38;;
40997;SDS011;26740;45.944;12.480;2023-04-06T11:49:42;13.00;;;6.45;;
40997;SDS011;26740;45.944;12.480;2023-04-06T11:54:51;10.93;;;6.97;;
40997;SDS011;26740;45.944;12.480;2023-04-06T11:57:21;14.10;;;6.68;;
40997;SDS011;26740;45.944;12.480;2023-04-06T11:59:50;11.68;;;6.93;;
40997;SDS011;26740;45.944;12.480;2023-04-06T12:02:16;7.88;;;5.60;;
40997;SDS011;26740;45.944;12.480;2023-04-06T12:04:42;8.80;;;6.10;;
40997;SDS011;26740;45.944;12.480;2023-04-06T12:07:08;8.05;;;5.97;;
40997;SDS011;26740;45.944;12.480;2023-04-06T12:09:34;10.98;;;6.82;;
40997;SDS011;26740;45.944;12.480;2023-04-06T12:12:01;11.43;;;6.65;;
40997;SDS011;26740;45.944;12.480;2023-04-06T12:14:27;11.88;;;6.30;;
40997;SDS011;26740;45.944;12.480;2023-04-06T12:16:52;8.65;;;5.65;;
40997;SDS011;26740;45.944;12.480;2023-04-06T12:19:18;9.93;;;6.20;;
40997;SDS011;26740;45.944;12.480;2023-04-06T12:21:43;14.45;;;6.38;;
40997;SDS011;26740;45.944;12.480;2023-04-06T12:24:09;11.32;;;6.72;;
40997;SDS011;26740;45.944;12.480;2023-04-06T12:26:35;10.48;;;6.75;;
40997;SDS011;26740;45.944;12.480;2023-04-06T12:29:02;9.45;;;6.22;;
40997;SDS011;26740;45.944;12.480;2023-04-06T12:31:32;8.38;;;6.28;;
40997;SDS011;26740;45.944;12.480;2023-04-06T12:34:03;11.88;;;6.22;;
40997;SDS011;26740;45.944;12.480;2023-04-06T12:36:29;9.65;;;6.35;;
40997;SDS011;26740;45.944;12.480;2023-04-06T12:38:56;11.32;;;7.20;;
40997;SDS011;26740;45.944;12.480;2023-04-06T12:41:21;11.38;;;6.43;;
40997;SDS011;26740;45.944;12.480;2023-04-06T12:43:48;16.73;;;5.95;;
40997;SDS011;26740;45.944;12.480;2023-04-06T12:46:14;14.50;;;6.45;;
40997;SDS011;26740;45.944;12.480;2023-04-06T12:48:40;14.90;;;6.88;;
40997;SDS011;26740;45.944;12.480;2023-04-06T12:51:06;11.40;;;7.28;;
40997;SDS011;26740;45.944;12.480;2023-04-06T12:53:35;11.25;;;6.43;;
40997;SDS011;26740;45.944;12.480;2023-04-06T12:56:01;11.75;;;7.28;;
40997;SDS011;26740;45.944;12.480;2023-04-06T12:58:27;11.85;;;6.47;;
40997;SDS011;26740;45.944;12.480;2023-04-06T13:00:53;11.13;;;6.38;;
40997;SDS011;26740;45.944;12.480;2023-04-06T13:03:19;10.48;;;6.65;;
40997;SDS011;26740;45.944;12.480;2023-04-06T13:05:46;12.35;;;6.00;;
40997;SDS011;26740;45.944;12.480;2023-04-06T13:08:12;11.43;;;6.82;;
40997;SDS011;26740;45.944;12.480;2023-04-06T13:10:48;10.23;;;6.45;;
40997;SDS011;26740;45.944;12.480;2023-04-06T13:13:17;9.45;;;5.53;;
40997;SDS011;26740;45.944;12.480;2023-04-06T13:15:50;10.15;;;6.88;;
40997;SDS011;26740;45.944;12.480;2023-04-06T13:18:16;14.15;;;8.38;;
40997;SDS011;26740;45.944;12.480;2023-04-06T13:20:42;10.13;;;6.97;;
40997;SDS011;26740;45.944;12.480;2023-04-06T13:23:08;11.80;;;6.35;;
40997;SDS011;26740;45.944;12.480;2023-04-06T13:25:33;9.23;;;6.28;;
40997;SDS011;26740;45.944;12.480;2023-04-06T13:28:00;11.88;;;6.22;;
40997;SDS011;26740;45.944;12.480;2023-04-06T13:30:25;11.07;;;6.13;;
40997;SDS011;26740;45.944;12.480;2023-04-06T13:32:51;11.00;;;7.03;;
40997;SDS011;26740;45.944;12.480;2023-04-06T13:35:16;13.30;;;6.57;;
40997;SDS011;26740;45.944;12.480;2023-04-06T13:37:42;10.90;;;6.07;;
40997;SDS011;26740;45.944;12.480;2023-04-06T13:40:08;12.45;;;6.63;;
40997;SDS011;26740;45.944;12.480;2023-04-06T13:42:34;10.10;;;6.85;;
40997;SDS011;26740;45.944;12.480;2023-04-06T13:45:00;17.50;;;7.15;;
40997;SDS011;26740;45.944;12.480;2023-04-06T13:47:26;10.55;;;6.88;;
40997;SDS011;26740;45.944;12.480;2023-04-06T13:49:52;10.25;;;6.72;;
40997;SDS011;26740;45.944;12.480;2023-04-06T13:52:19;12.48;;;7.25;;
40997;SDS011;26740;45.944;12.480;2023-04-06T13:54:44;9.70;;;6.03;;
40997;SDS011;26740;45.944;12.480;2023-04-06T13:57:10;11.63;;;7.13;;
40997;SDS011;26740;45.944;12.480;2023-04-06T13:59:37;12.38;;;6.60;;
40997;SDS011;26740;45.944;12.480;2023-04-06T14:02:03;10.23;;;6.75;;
40997;SDS011;26740;45.944;12.480;2023-04-06T14:04:30;8.68;;;5.30;;
40997;SDS011;26740;45.944;12.480;2023-04-06T14:06:56;14.95;;;6.78;;
40997;SDS011;26740;45.944;12.480;2023-04-06T14:09:22;15.70;;;6.75;;
40997;SDS011;26740;45.944;12.480;2023-04-06T14:11:48;14.40;;;7.18;;
40997;SDS011;26740;45.944;12.480;2023-04-06T14:14:14;14.18;;;7.43;;
40997;SDS011;26740;45.944;12.480;2023-04-06T14:16:40;11.15;;;6.30;;
40997;SDS011;26740;45.944;12.480;2023-04-06T14:19:12;8.73;;;6.50;;
40997;SDS011;26740;45.944;12.480;2023-04-06T14:21:40;8.27;;;5.60;;
40997;SDS011;26740;45.944;12.480;2023-04-06T14:24:06;8.48;;;5.82;;
40997;SDS011;26740;45.944;12.480;2023-04-06T14:26:34;7.53;;;5.70;;
40997;SDS011;26740;45.944;12.480;2023-04-06T14:29:00;9.60;;;6.13;;
40997;SDS011;26740;45.944;12.480;2023-04-06T14:31:26;13.70;;;7.28;;
40997;SDS011;26740;45.944;12.480;2023-04-06T14:33:52;11.77;;;7.28;;
40997;SDS011;26740;45.944;12.480;2023-04-06T14:36:18;16.42;;;7.40;;
40997;SDS011;26740;45.944;12.480;2023-04-06T14:38:43;16.70;;;8.80;;
40997;SDS011;26740;45.944;12.480;2023-04-06T14:41:18;17.33;;;7.57;;